METAR Data
IDs: Format: Raw Decoded Include TAF

Data at: 0103 UTC 01 Mar 2021

KPNM 010056Z AUTO 28008KT 10SM CLR M07/M13 A3000 RMK AO2